Amelia, Nebraska
Current Conditions -  °F | °C
As of 3:55 PM on Monday 20 Oct 2014 (Local Time) from KONL Reporting Station
Clear Clear  
Wind Chill: 73°   Ceiling: Unl
Heat Index: 73°   Visibility: 10mi
Dew Point: 41°   Wind: 3mph
Humidity: 32%   Direction: 210°SSW
Pressure: 30.06"   Gusts: NA
Location:  42.24°N, 98.91°W
Report Text: KONL 202055Z AUTO 21003KT 10SM CLR 23/05 A3006 RMK AO2 T02250052
Loading
Personal Weather Stations






























Interactive Weather Map
Tropical Storm Tracking
New forecast layout! Learn more

10-Day Weather Forecast

Advertisements
Track Severe Weather on mobile